sensor_id;sensor_type;location;lat;lon;timestamp;P1;durP1;ratioP1;P2;durP2;ratioP2
15577;SDS011;17667;45.598;5.214;2023-04-25T05:03:05;1.20;;;1.10;;
15577;SDS011;17667;45.598;5.214;2023-04-25T05:06:08;0.97;;;0.93;;
15577;SDS011;17667;45.598;5.214;2023-04-25T05:09:25;1.57;;;1.07;;
15577;SDS011;17667;45.598;5.214;2023-04-25T05:12:36;1.00;;;0.93;;
15577;SDS011;17667;45.598;5.214;2023-04-25T05:15:26;0.90;;;0.90;;
15577;SDS011;17667;45.598;5.214;2023-04-25T05:18:18;1.00;;;0.90;;
15577;SDS011;17667;45.598;5.214;2023-04-25T05:21:33;1.10;;;1.00;;
15577;SDS011;17667;45.598;5.214;2023-04-25T05:24:28;0.93;;;0.87;;
15577;SDS011;17667;45.598;5.214;2023-04-25T05:27:29;0.80;;;0.80;;
15577;SDS011;17667;45.598;5.214;2023-04-25T05:30:35;1.77;;;1.00;;
15577;SDS011;17667;45.598;5.214;2023-04-25T05:33:46;1.10;;;1.00;;
15577;SDS011;17667;45.598;5.214;2023-04-25T05:36:35;1.13;;;1.10;;
15577;SDS011;17667;45.598;5.214;2023-04-25T05:39:23;0.93;;;0.93;;
15577;SDS011;17667;45.598;5.214;2023-04-25T05:42:19;1.17;;;1.10;;
15577;SDS011;17667;45.598;5.214;2023-04-25T05:45:25;1.03;;;0.93;;
15577;SDS011;17667;45.598;5.214;2023-04-25T05:48:27;1.33;;;1.13;;
15577;SDS011;17667;45.598;5.214;2023-04-25T05:51:37;1.70;;;1.20;;
15577;SDS011;17667;45.598;5.214;2023-04-25T05:54:48;1.73;;;1.20;;
15577;SDS011;17667;45.598;5.214;2023-04-25T05:57:36;1.20;;;1.10;;
15577;SDS011;17667;45.598;5.214;2023-04-25T06:00:27;1.07;;;0.97;;
15577;SDS011;17667;45.598;5.214;2023-04-25T06:03:15;1.83;;;1.10;;
15577;SDS011;17667;45.598;5.214;2023-04-25T06:06:04;1.33;;;1.00;;
15577;SDS011;17667;45.598;5.214;2023-04-25T06:08:53;1.10;;;1.00;;
15577;SDS011;17667;45.598;5.214;2023-04-25T06:11:42;1.10;;;1.00;;
15577;SDS011;17667;45.598;5.214;2023-04-25T06:14:30;1.13;;;1.03;;
15577;SDS011;17667;45.598;5.214;2023-04-25T06:17:17;1.30;;;1.00;;
15577;SDS011;17667;45.598;5.214;2023-04-25T06:20:08;0.70;;;0.70;;
15577;SDS011;17667;45.598;5.214;2023-04-25T06:22:58;1.17;;;0.80;;
15577;SDS011;17667;45.598;5.214;2023-04-25T06:26:07;0.80;;;0.80;;
15577;SDS011;17667;45.598;5.214;2023-04-25T06:28:57;0.73;;;0.73;;
15577;SDS011;17667;45.598;5.214;2023-04-25T06:31:45;0.70;;;0.70;;
15577;SDS011;17667;45.598;5.214;2023-04-25T06:34:33;0.67;;;0.67;;
15577;SDS011;17667;45.598;5.214;2023-04-25T06:37:21;0.93;;;0.90;;
15577;SDS011;17667;45.598;5.214;2023-04-25T06:40:10;0.80;;;0.80;;
15577;SDS011;17667;45.598;5.214;2023-04-25T06:42:59;1.83;;;1.00;;
15577;SDS011;17667;45.598;5.214;2023-04-25T06:46:05;0.80;;;0.80;;
15577;SDS011;17667;45.598;5.214;2023-04-25T06:49:00;0.80;;;0.80;;
15577;SDS011;17667;45.598;5.214;2023-04-25T06:51:47;0.90;;;0.90;;
15577;SDS011;17667;45.598;5.214;2023-04-25T06:54:35;0.70;;;0.70;;
15577;SDS011;17667;45.598;5.214;2023-04-25T06:57:35;0.70;;;0.70;;
15577;SDS011;17667;45.598;5.214;2023-04-25T07:00:49;0.67;;;0.67;;
15577;SDS011;17667;45.598;5.214;2023-04-25T07:03:39;0.60;;;0.60;;
15577;SDS011;17667;45.598;5.214;2023-04-25T07:06:33;0.60;;;0.60;;
15577;SDS011;17667;45.598;5.214;2023-04-25T07:09:24;0.90;;;0.70;;
15577;SDS011;17667;45.598;5.214;2023-04-25T07:12:13;0.70;;;0.70;;
15577;SDS011;17667;45.598;5.214;2023-04-25T07:15:02;0.70;;;0.70;;
15577;SDS011;17667;45.598;5.214;2023-04-25T07:17:53;0.77;;;0.70;;
15577;SDS011;17667;45.598;5.214;2023-04-25T07:20:41;1.10;;;0.70;;
15577;SDS011;17667;45.598;5.214;2023-04-25T07:23:29;0.70;;;0.70;;
15577;SDS011;17667;45.598;5.214;2023-04-25T07:26:20;0.53;;;0.53;;
15577;SDS011;17667;45.598;5.214;2023-04-25T07:29:27;0.80;;;0.80;;
15577;SDS011;17667;45.598;5.214;2023-04-25T07:32:17;0.70;;;0.60;;
15577;SDS011;17667;45.598;5.214;2023-04-25T07:35:07;0.70;;;0.70;;
15577;SDS011;17667;45.598;5.214;2023-04-25T07:37:55;0.60;;;0.60;;
15577;SDS011;17667;45.598;5.214;2023-04-25T07:40:43;0.60;;;0.60;;
15577;SDS011;17667;45.598;5.214;2023-04-25T07:43:31;0.70;;;0.70;;
15577;SDS011;17667;45.598;5.214;2023-04-25T07:46:18;0.70;;;0.70;;
15577;SDS011;17667;45.598;5.214;2023-04-25T07:49:06;1.10;;;1.00;;
15577;SDS011;17667;45.598;5.214;2023-04-25T07:51:55;0.80;;;0.80;;
15577;SDS011;17667;45.598;5.214;2023-04-25T07:54:43;0.80;;;0.80;;
15577;SDS011;17667;45.598;5.214;2023-04-25T07:57:35;0.70;;;0.70;;
15577;SDS011;17667;45.598;5.214;2023-04-25T08:00:24;0.90;;;0.90;;
15577;SDS011;17667;45.598;5.214;2023-04-25T08:03:27;0.60;;;0.60;;
15577;SDS011;17667;45.598;5.214;2023-04-25T08:06:16;0.70;;;0.70;;
15577;SDS011;17667;45.598;5.214;2023-04-25T08:09:24;0.70;;;0.70;;
15577;SDS011;17667;45.598;5.214;2023-04-25T08:12:12;0.73;;;0.70;;
15577;SDS011;17667;45.598;5.214;2023-04-25T08:15:00;0.87;;;0.80;;
15577;SDS011;17667;45.598;5.214;2023-04-25T08:17:52;0.60;;;0.60;;
15577;SDS011;17667;45.598;5.214;2023-04-25T08:20:40;0.70;;;0.70;;
15577;SDS011;17667;45.598;5.214;2023-04-25T08:23:29;0.80;;;0.80;;
15577;SDS011;17667;45.598;5.214;2023-04-25T08:26:31;0.70;;;0.70;;
15577;SDS011;17667;45.598;5.214;2023-04-25T08:29:20;0.80;;;0.80;;
15577;SDS011;17667;45.598;5.214;2023-04-25T08:32:11;0.90;;;0.90;;
15577;SDS011;17667;45.598;5.214;2023-04-25T08:35:06;1.07;;;0.97;;
15577;SDS011;17667;45.598;5.214;2023-04-25T08:37:54;0.60;;;0.60;;
15577;SDS011;17667;45.598;5.214;2023-04-25T08:40:43;0.80;;;0.80;;
15577;SDS011;17667;45.598;5.214;2023-04-25T08:43:36;0.90;;;0.90;;
15577;SDS011;17667;45.598;5.214;2023-04-25T08:46:28;0.70;;;0.70;;
15577;SDS011;17667;45.598;5.214;2023-04-25T08:49:29;0.80;;;0.80;;
15577;SDS011;17667;45.598;5.214;2023-04-25T08:52:20;0.73;;;0.73;;
15577;SDS011;17667;45.598;5.214;2023-04-25T08:55:11;0.80;;;0.80;;
15577;SDS011;17667;45.598;5.214;2023-04-25T08:58:00;0.90;;;0.80;;
15577;SDS011;17667;45.598;5.214;2023-04-25T09:00:49;0.87;;;0.87;;
15577;SDS011;17667;45.598;5.214;2023-04-25T09:03:40;1.27;;;0.90;;
15577;SDS011;17667;45.598;5.214;2023-04-25T09:06:30;1.13;;;1.07;;
15577;SDS011;17667;45.598;5.214;2023-04-25T09:09:20;0.80;;;0.80;;
15577;SDS011;17667;45.598;5.214;2023-04-25T09:12:08;0.90;;;0.90;;
15577;SDS011;17667;45.598;5.214;2023-04-25T09:15:06;0.80;;;0.80;;
15577;SDS011;17667;45.598;5.214;2023-04-25T09:18:23;0.80;;;0.80;;
15577;SDS011;17667;45.598;5.214;2023-04-25T09:21:14;0.80;;;0.80;;
15577;SDS011;17667;45.598;5.214;2023-04-25T09:24:05;0.80;;;0.80;;
15577;SDS011;17667;45.598;5.214;2023-04-25T09:26:54;0.80;;;0.80;;
15577;SDS011;17667;45.598;5.214;2023-04-25T09:29:41;0.80;;;0.80;;
15577;SDS011;17667;45.598;5.214;2023-04-25T09:32:30;0.60;;;0.60;;
15577;SDS011;17667;45.598;5.214;2023-04-25T09:35:24;1.10;;;0.90;;
15577;SDS011;17667;45.598;5.214;2023-04-25T09:38:14;0.73;;;0.73;;
15577;SDS011;17667;45.598;5.214;2023-04-25T09:41:22;0.70;;;0.70;;
15577;SDS011;17667;45.598;5.214;2023-04-25T09:44:12;1.00;;;0.80;;
15577;SDS011;17667;45.598;5.214;2023-04-25T09:47:02;0.70;;;0.70;;
15577;SDS011;17667;45.598;5.214;2023-04-25T09:49:51;0.80;;;0.80;;
15577;SDS011;17667;45.598;5.214;2023-04-25T09:52:41;0.90;;;0.90;;
15577;SDS011;17667;45.598;5.214;2023-04-25T09:55:38;0.70;;;0.70;;
15577;SDS011;17667;45.598;5.214;2023-04-25T09:58:26;0.63;;;0.63;;
15577;SDS011;17667;45.598;5.214;2023-04-25T10:01:17;0.80;;;0.80;;
15577;SDS011;17667;45.598;5.214;2023-04-25T10:04:24;0.80;;;0.80;;
15577;SDS011;17667;45.598;5.214;2023-04-25T10:07:22;0.90;;;0.83;;
15577;SDS011;17667;45.598;5.214;2023-04-25T10:10:13;0.60;;;0.60;;
15577;SDS011;17667;45.598;5.214;2023-04-25T10:13:00;0.80;;;0.80;;
15577;SDS011;17667;45.598;5.214;2023-04-25T10:15:51;0.73;;;0.73;;
15577;SDS011;17667;45.598;5.214;2023-04-25T10:18:41;0.70;;;0.70;;
15577;SDS011;17667;45.598;5.214;2023-04-25T10:21:28;0.90;;;0.90;;
15577;SDS011;17667;45.598;5.214;2023-04-25T10:24:19;0.80;;;0.80;;
15577;SDS011;17667;45.598;5.214;2023-04-25T10:27:09;1.03;;;0.83;;
15577;SDS011;17667;45.598;5.214;2023-04-25T10:30:00;0.70;;;0.70;;
15577;SDS011;17667;45.598;5.214;2023-04-25T10:32:50;0.70;;;0.70;;
15577;SDS011;17667;45.598;5.214;2023-04-25T10:35:37;0.70;;;0.70;;
15577;SDS011;17667;45.598;5.214;2023-04-25T10:38:26;0.80;;;0.70;;
15577;SDS011;17667;45.598;5.214;2023-04-25T10:41:13;0.70;;;0.70;;
15577;SDS011;17667;45.598;5.214;2023-04-25T10:44:03;0.60;;;0.60;;
15577;SDS011;17667;45.598;5.214;2023-04-25T10:46:51;0.50;;;0.50;;
15577;SDS011;17667;45.598;5.214;2023-04-25T10:49:41;0.83;;;0.83;;
15577;SDS011;17667;45.598;5.214;2023-04-25T10:52:29;0.80;;;0.80;;
15577;SDS011;17667;45.598;5.214;2023-04-25T10:55:19;0.70;;;0.70;;
15577;SDS011;17667;45.598;5.214;2023-04-25T10:58:07;0.70;;;0.70;;
15577;SDS011;17667;45.598;5.214;2023-04-25T11:00:57;0.60;;;0.60;;
15577;SDS011;17667;45.598;5.214;2023-04-25T11:03:44;0.70;;;0.70;;
15577;SDS011;17667;45.598;5.214;2023-04-25T11:06:37;0.70;;;0.60;;
15577;SDS011;17667;45.598;5.214;2023-04-25T11:09:39;0.60;;;0.60;;
15577;SDS011;17667;45.598;5.214;2023-04-25T11:12:27;0.70;;;0.70;;
15577;SDS011;17667;45.598;5.214;2023-04-25T11:15:16;0.60;;;0.60;;
15577;SDS011;17667;45.598;5.214;2023-04-25T11:18:05;0.70;;;0.70;;
15577;SDS011;17667;45.598;5.214;2023-04-25T11:20:56;0.50;;;0.50;;
15577;SDS011;17667;45.598;5.214;2023-04-25T11:23:44;0.70;;;0.70;;
15577;SDS011;17667;45.598;5.214;2023-04-25T11:26:32;0.50;;;0.50;;
15577;SDS011;17667;45.598;5.214;2023-04-25T11:29:21;0.80;;;0.80;;
15577;SDS011;17667;45.598;5.214;2023-04-25T11:32:09;0.70;;;0.70;;
15577;SDS011;17667;45.598;5.214;2023-04-25T11:34:58;0.90;;;0.77;;
15577;SDS011;17667;45.598;5.214;2023-04-25T11:37:46;1.23;;;0.83;;
15577;SDS011;17667;45.598;5.214;2023-04-25T11:40:35;0.77;;;0.77;;
15577;SDS011;17667;45.598;5.214;2023-04-25T11:43:23;0.90;;;0.70;;
15577;SDS011;17667;45.598;5.214;2023-04-25T11:46:10;1.30;;;0.73;;
15577;SDS011;17667;45.598;5.214;2023-04-25T11:48:58;0.80;;;0.80;;
15577;SDS011;17667;45.598;5.214;2023-04-25T11:51:47;0.60;;;0.60;;
15577;SDS011;17667;45.598;5.214;2023-04-25T11:54:35;0.80;;;0.80;;
15577;SDS011;17667;45.598;5.214;2023-04-25T11:57:23;0.70;;;0.70;;
15577;SDS011;17667;45.598;5.214;2023-04-25T12:00:11;0.70;;;0.70;;
15577;SDS011;17667;45.598;5.214;2023-04-25T12:03:03;0.70;;;0.70;;
15577;SDS011;17667;45.598;5.214;2023-04-25T12:05:51;0.67;;;0.60;;
15577;SDS011;17667;45.598;5.214;2023-04-25T12:08:40;0.77;;;0.70;;
15577;SDS011;17667;45.598;5.214;2023-04-25T12:11:47;0.70;;;0.70;;
15577;SDS011;17667;45.598;5.214;2023-04-25T12:14:36;1.00;;;0.80;;
15577;SDS011;17667;45.598;5.214;2023-04-25T12:17:23;0.63;;;0.63;;
15577;SDS011;17667;45.598;5.214;2023-04-25T12:20:12;0.70;;;0.70;;
15577;SDS011;17667;45.598;5.214;2023-04-25T12:23:01;0.80;;;0.80;;
15577;SDS011;17667;45.598;5.214;2023-04-25T12:25:54;0.70;;;0.70;;
15577;SDS011;17667;45.598;5.214;2023-04-25T12:28:44;0.70;;;0.70;;
15577;SDS011;17667;45.598;5.214;2023-04-25T12:31:33;1.13;;;0.80;;
15577;SDS011;17667;45.598;5.214;2023-04-25T12:34:22;1.27;;;1.03;;
15577;SDS011;17667;45.598;5.214;2023-04-25T12:37:10;0.70;;;0.70;;
15577;SDS011;17667;45.598;5.214;2023-04-25T12:39:58;0.70;;;0.70;;
15577;SDS011;17667;45.598;5.214;2023-04-25T12:42:47;0.67;;;0.67;;
15577;SDS011;17667;45.598;5.214;2023-04-25T12:45:34;0.77;;;0.77;;
15577;SDS011;17667;45.598;5.214;2023-04-25T12:48:22;0.70;;;0.70;;
15577;SDS011;17667;45.598;5.214;2023-04-25T12:51:10;0.80;;;0.70;;
15577;SDS011;17667;45.598;5.214;2023-04-25T12:53:58;0.80;;;0.80;;
15577;SDS011;17667;45.598;5.214;2023-04-25T12:56:45;0.70;;;0.70;;
15577;SDS011;17667;45.598;5.214;2023-04-25T12:59:35;0.57;;;0.57;;
15577;SDS011;17667;45.598;5.214;2023-04-25T13:02:22;0.77;;;0.77;;
15577;SDS011;17667;45.598;5.214;2023-04-25T13:05:10;0.70;;;0.70;;
15577;SDS011;17667;45.598;5.214;2023-04-25T13:07:58;0.60;;;0.60;;
15577;SDS011;17667;45.598;5.214;2023-04-25T13:10:47;0.60;;;0.60;;
15577;SDS011;17667;45.598;5.214;2023-04-25T13:13:34;0.90;;;0.63;;
15577;SDS011;17667;45.598;5.214;2023-04-25T13:16:23;0.60;;;0.60;;
15577;SDS011;17667;45.598;5.214;2023-04-25T13:19:11;0.67;;;0.67;;
15577;SDS011;17667;45.598;5.214;2023-04-25T13:21:58;0.60;;;0.60;;
15577;SDS011;17667;45.598;5.214;2023-04-25T13:24:46;0.53;;;0.53;;
15577;SDS011;17667;45.598;5.214;2023-04-25T13:27:34;0.60;;;0.60;;
15577;SDS011;17667;45.598;5.214;2023-04-25T13:30:23;0.47;;;0.47;;
15577;SDS011;17667;45.598;5.214;2023-04-25T13:33:12;0.50;;;0.50;;
15577;SDS011;17667;45.598;5.214;2023-04-25T13:36:00;0.53;;;0.50;;
15577;SDS011;17667;45.598;5.214;2023-04-25T13:38:48;0.60;;;0.60;;
15577;SDS011;17667;45.598;5.214;2023-04-25T13:41:36;0.67;;;0.67;;
15577;SDS011;17667;45.598;5.214;2023-04-25T13:44:29;0.60;;;0.60;;
15577;SDS011;17667;45.598;5.214;2023-04-25T13:47:17;0.50;;;0.50;;
15577;SDS011;17667;45.598;5.214;2023-04-25T13:50:06;0.50;;;0.50;;
15577;SDS011;17667;45.598;5.214;2023-04-25T13:52:55;0.60;;;0.60;;
15577;SDS011;17667;45.598;5.214;2023-04-25T13:55:43;0.60;;;0.60;;
15577;SDS011;17667;45.598;5.214;2023-04-25T13:58:30;0.57;;;0.50;;
15577;SDS011;17667;45.598;5.214;2023-04-25T14:01:18;0.70;;;0.70;;
15577;SDS011;17667;45.598;5.214;2023-04-25T14:04:06;0.70;;;0.70;;
15577;SDS011;17667;45.598;5.214;2023-04-25T14:06:55;0.60;;;0.60;;
15577;SDS011;17667;45.598;5.214;2023-04-25T14:09:43;0.80;;;0.80;;
15577;SDS011;17667;45.598;5.214;2023-04-25T14:12:32;0.60;;;0.60;;
15577;SDS011;17667;45.598;5.214;2023-04-25T14:15:19;0.87;;;0.70;;
15577;SDS011;17667;45.598;5.214;2023-04-25T14:18:07;0.57;;;0.53;;
15577;SDS011;17667;45.598;5.214;2023-04-25T14:20:55;0.53;;;0.53;;
15577;SDS011;17667;45.598;5.214;2023-04-25T14:23:44;1.20;;;0.50;;
15577;SDS011;17667;45.598;5.214;2023-04-25T14:26:33;0.60;;;0.60;;
15577;SDS011;17667;45.598;5.214;2023-04-25T14:29:21;1.03;;;0.70;;
15577;SDS011;17667;45.598;5.214;2023-04-25T14:32:09;0.60;;;0.60;;
15577;SDS011;17667;45.598;5.214;2023-04-25T14:34:56;0.50;;;0.50;;
15577;SDS011;17667;45.598;5.214;2023-04-25T14:37:44;0.60;;;0.60;;
15577;SDS011;17667;45.598;5.214;2023-04-25T14:40:33;0.60;;;0.60;;
15577;SDS011;17667;45.598;5.214;2023-04-25T14:43:21;0.60;;;0.60;;
15577;SDS011;17667;45.598;5.214;2023-04-25T14:46:08;0.63;;;0.63;;
15577;SDS011;17667;45.598;5.214;2023-04-25T14:48:56;0.50;;;0.50;;
15577;SDS011;17667;45.598;5.214;2023-04-25T14:51:44;0.47;;;0.47;;
15577;SDS011;17667;45.598;5.214;2023-04-25T14:54:32;0.50;;;0.50;;
15577;SDS011;17667;45.598;5.214;2023-04-25T14:57:21;0.63;;;0.63;;
15577;SDS011;17667;45.598;5.214;2023-04-25T15:00:09;0.50;;;0.50;;
15577;SDS011;17667;45.598;5.214;2023-04-25T15:03:00;0.50;;;0.50;;
15577;SDS011;17667;45.598;5.214;2023-04-25T15:05:48;0.43;;;0.43;;
15577;SDS011;17667;45.598;5.214;2023-04-25T15:08:36;0.70;;;0.70;;
15577;SDS011;17667;45.598;5.214;2023-04-25T15:11:24;0.50;;;0.50;;
15577;SDS011;17667;45.598;5.214;2023-04-25T15:14:13;0.60;;;0.60;;
15577;SDS011;17667;45.598;5.214;2023-04-25T15:17:00;0.50;;;0.50;;
15577;SDS011;17667;45.598;5.214;2023-04-25T15:19:48;0.60;;;0.60;;
15577;SDS011;17667;45.598;5.214;2023-04-25T15:22:36;0.50;;;0.50;;
15577;SDS011;17667;45.598;5.214;2023-04-25T15:25:24;0.50;;;0.50;;
15577;SDS011;17667;45.598;5.214;2023-04-25T15:28:14;0.50;;;0.50;;
15577;SDS011;17667;45.598;5.214;2023-04-25T15:31:03;0.40;;;0.40;;
15577;SDS011;17667;45.598;5.214;2023-04-25T15:33:51;0.50;;;0.50;;
15577;SDS011;17667;45.598;5.214;2023-04-25T15:36:38;0.60;;;0.60;;
15577;SDS011;17667;45.598;5.214;2023-04-25T15:39:26;0.60;;;0.60;;
15577;SDS011;17667;45.598;5.214;2023-04-25T15:42:14;0.40;;;0.40;;
15577;SDS011;17667;45.598;5.214;2023-04-25T15:45:02;0.70;;;0.67;;
15577;SDS011;17667;45.598;5.214;2023-04-25T15:47:53;0.70;;;0.70;;
15577;SDS011;17667;45.598;5.214;2023-04-25T15:50:41;0.50;;;0.50;;
15577;SDS011;17667;45.598;5.214;2023-04-25T15:53:29;0.70;;;0.70;;
15577;SDS011;17667;45.598;5.214;2023-04-25T15:56:17;0.50;;;0.50;;
15577;SDS011;17667;45.598;5.214;2023-04-25T15:59:04;0.67;;;0.67;;
15577;SDS011;17667;45.598;5.214;2023-04-25T16:01:52;0.50;;;0.50;;
15577;SDS011;17667;45.598;5.214;2023-04-25T16:04:41;0.60;;;0.53;;
15577;SDS011;17667;45.598;5.214;2023-04-25T16:07:29;0.47;;;0.47;;
15577;SDS011;17667;45.598;5.214;2023-04-25T16:10:18;0.43;;;0.43;;
15577;SDS011;17667;45.598;5.214;2023-04-25T16:13:06;0.40;;;0.40;;
15577;SDS011;17667;45.598;5.214;2023-04-25T16:15:54;0.50;;;0.50;;
15577;SDS011;17667;45.598;5.214;2023-04-25T16:18:41;0.50;;;0.50;;
15577;SDS011;17667;45.598;5.214;2023-04-25T16:21:30;0.60;;;0.60;;
15577;SDS011;17667;45.598;5.214;2023-04-25T16:24:18;0.63;;;0.63;;
15577;SDS011;17667;45.598;5.214;2023-04-25T16:27:05;0.50;;;0.50;;
15577;SDS011;17667;45.598;5.214;2023-04-25T16:29:53;0.40;;;0.40;;
15577;SDS011;17667;45.598;5.214;2023-04-25T16:32:41;0.50;;;0.50;;
15577;SDS011;17667;45.598;5.214;2023-04-25T16:35:30;0.50;;;0.50;;
15577;SDS011;17667;45.598;5.214;2023-04-25T16:38:19;0.40;;;0.40;;
15577;SDS011;17667;45.598;5.214;2023-04-25T16:41:07;0.40;;;0.40;;
15577;SDS011;17667;45.598;5.214;2023-04-25T16:43:56;0.50;;;0.50;;
15577;SDS011;17667;45.598;5.214;2023-04-25T16:46:44;0.70;;;0.60;;
15577;SDS011;17667;45.598;5.214;2023-04-25T16:49:32;0.50;;;0.50;;
15577;SDS011;17667;45.598;5.214;2023-04-25T16:52:19;0.60;;;0.57;;
15577;SDS011;17667;45.598;5.214;2023-04-25T16:55:09;0.40;;;0.40;;
15577;SDS011;17667;45.598;5.214;2023-04-25T16:57:57;0.40;;;0.40;;
15577;SDS011;17667;45.598;5.214;2023-04-25T17:00:46;0.40;;;0.40;;
15577;SDS011;17667;45.598;5.214;2023-04-25T17:03:33;0.40;;;0.40;;
15577;SDS011;17667;45.598;5.214;2023-04-25T17:06:21;0.50;;;0.50;;
15577;SDS011;17667;45.598;5.214;2023-04-25T17:09:09;0.70;;;0.50;;
15577;SDS011;17667;45.598;5.214;2023-04-25T17:11:58;0.80;;;0.70;;
15577;SDS011;17667;45.598;5.214;2023-04-25T17:14:47;0.50;;;0.50;;
15577;SDS011;17667;45.598;5.214;2023-04-25T17:17:35;0.40;;;0.40;;
15577;SDS011;17667;45.598;5.214;2023-04-25T17:20:23;0.97;;;0.50;;
15577;SDS011;17667;45.598;5.214;2023-04-25T17:23:10;0.50;;;0.50;;
15577;SDS011;17667;45.598;5.214;2023-04-25T17:25:58;0.50;;;0.50;;
15577;SDS011;17667;45.598;5.214;2023-04-25T17:28:47;0.40;;;0.40;;
15577;SDS011;17667;45.598;5.214;2023-04-25T17:31:35;0.53;;;0.53;;
15577;SDS011;17667;45.598;5.214;2023-04-25T17:34:23;0.40;;;0.40;;
15577;SDS011;17667;45.598;5.214;2023-04-25T17:37:10;0.40;;;0.40;;
15577;SDS011;17667;45.598;5.214;2023-04-25T17:40:01;0.50;;;0.40;;
15577;SDS011;17667;45.598;5.214;2023-04-25T17:42:49;0.40;;;0.40;;
15577;SDS011;17667;45.598;5.214;2023-04-25T17:45:39;0.40;;;0.40;;
15577;SDS011;17667;45.598;5.214;2023-04-25T17:48:26;0.40;;;0.40;;
15577;SDS011;17667;45.598;5.214;2023-04-25T17:51:15;0.40;;;0.40;;
15577;SDS011;17667;45.598;5.214;2023-04-25T17:54:02;0.50;;;0.50;;
15577;SDS011;17667;45.598;5.214;2023-04-25T17:56:50;0.40;;;0.40;;
15577;SDS011;17667;45.598;5.214;2023-04-25T17:59:39;0.40;;;0.40;;
15577;SDS011;17667;45.598;5.214;2023-04-25T18:02:28;0.50;;;0.50;;
15577;SDS011;17667;45.598;5.214;2023-04-25T18:05:15;0.30;;;0.30;;
15577;SDS011;17667;45.598;5.214;2023-04-25T18:08:04;0.30;;;0.30;;
15577;SDS011;17667;45.598;5.214;2023-04-25T18:10:52;0.40;;;0.40;;
15577;SDS011;17667;45.598;5.214;2023-04-25T18:13:39;0.30;;;0.30;;
15577;SDS011;17667;45.598;5.214;2023-04-25T18:16:28;0.33;;;0.33;;
15577;SDS011;17667;45.598;5.214;2023-04-25T18:19:17;0.30;;;0.30;;
15577;SDS011;17667;45.598;5.214;2023-04-25T18:22:07;0.30;;;0.30;;
15577;SDS011;17667;45.598;5.214;2023-04-25T18:24:55;0.30;;;0.30;;
15577;SDS011;17667;45.598;5.214;2023-04-25T18:27:43;0.40;;;0.40;;
15577;SDS011;17667;45.598;5.214;2023-04-25T18:30:31;0.40;;;0.40;;
15577;SDS011;17667;45.598;5.214;2023-04-25T18:33:18;0.30;;;0.30;;
15577;SDS011;17667;45.598;5.214;2023-04-25T18:36:08;0.30;;;0.30;;
15577;SDS011;17667;45.598;5.214;2023-04-25T18:38:56;0.30;;;0.30;;
15577;SDS011;17667;45.598;5.214;2023-04-25T18:41:50;0.40;;;0.40;;
15577;SDS011;17667;45.598;5.214;2023-04-25T18:44:43;0.30;;;0.30;;
15577;SDS011;17667;45.598;5.214;2023-04-25T18:47:31;0.30;;;0.30;;
15577;SDS011;17667;45.598;5.214;2023-04-25T18:50:18;0.20;;;0.20;;
15577;SDS011;17667;45.598;5.214;2023-04-25T18:53:09;0.20;;;0.20;;
15577;SDS011;17667;45.598;5.214;2023-04-25T18:55:59;0.20;;;0.20;;
15577;SDS011;17667;45.598;5.214;2023-04-25T18:58:47;0.30;;;0.30;;
15577;SDS011;17667;45.598;5.214;2023-04-25T19:01:36;0.30;;;0.30;;
15577;SDS011;17667;45.598;5.214;2023-04-25T19:04:24;0.30;;;0.30;;
15577;SDS011;17667;45.598;5.214;2023-04-25T19:07:12;0.33;;;0.33;;
15577;SDS011;17667;45.598;5.214;2023-04-25T19:10:02;0.40;;;0.30;;
15577;SDS011;17667;45.598;5.214;2023-04-25T19:12:50;0.30;;;0.30;;
15577;SDS011;17667;45.598;5.214;2023-04-25T19:15:40;0.20;;;0.20;;
15577;SDS011;17667;45.598;5.214;2023-04-25T19:18:28;0.30;;;0.30;;
15577;SDS011;17667;45.598;5.214;2023-04-25T19:21:16;0.30;;;0.30;;
15577;SDS011;17667;45.598;5.214;2023-04-25T19:24:03;0.37;;;0.30;;
15577;SDS011;17667;45.598;5.214;2023-04-25T19:26:54;0.30;;;0.30;;
15577;SDS011;17667;45.598;5.214;2023-04-25T19:29:41;0.20;;;0.20;;
15577;SDS011;17667;45.598;5.214;2023-04-25T19:32:32;0.37;;;0.37;;
15577;SDS011;17667;45.598;5.214;2023-04-25T19:35:20;0.20;;;0.20;;
15577;SDS011;17667;45.598;5.214;2023-04-25T19:38:08;0.30;;;0.30;;
15577;SDS011;17667;45.598;5.214;2023-04-25T19:40:56;0.30;;;0.30;;
15577;SDS011;17667;45.598;5.214;2023-04-25T19:43:45;0.27;;;0.27;;
15577;SDS011;17667;45.598;5.214;2023-04-25T19:46:32;0.30;;;0.30;;
15577;SDS011;17667;45.598;5.214;2023-04-25T19:49:20;0.30;;;0.30;;
15577;SDS011;17667;45.598;5.214;2023-04-25T19:52:08;0.40;;;0.40;;
15577;SDS011;17667;45.598;5.214;2023-04-25T19:54:59;0.30;;;0.30;;
15577;SDS011;17667;45.598;5.214;2023-04-25T19:57:47;0.30;;;0.30;;
15577;SDS011;17667;45.598;5.214;2023-04-25T20:00:37;0.20;;;0.20;;
15577;SDS011;17667;45.598;5.214;2023-04-25T20:03:25;0.30;;;0.30;;
15577;SDS011;17667;45.598;5.214;2023-04-25T20:06:13;0.37;;;0.30;;
15577;SDS011;17667;45.598;5.214;2023-04-25T20:09:01;0.20;;;0.20;;
15577;SDS011;17667;45.598;5.214;2023-04-25T20:11:50;0.23;;;0.23;;
15577;SDS011;17667;45.598;5.214;2023-04-25T20:14:38;0.30;;;0.30;;
15577;SDS011;17667;45.598;5.214;2023-04-25T20:17:27;0.20;;;0.20;;
15577;SDS011;17667;45.598;5.214;2023-04-25T20:20:15;0.30;;;0.30;;
15577;SDS011;17667;45.598;5.214;2023-04-25T20:23:03;0.27;;;0.20;;
15577;SDS011;17667;45.598;5.214;2023-04-25T20:25:51;0.30;;;0.30;;
15577;SDS011;17667;45.598;5.214;2023-04-25T20:28:40;0.20;;;0.20;;
15577;SDS011;17667;45.598;5.214;2023-04-25T20:31:28;0.20;;;0.20;;
15577;SDS011;17667;45.598;5.214;2023-04-25T20:34:18;0.27;;;0.27;;
15577;SDS011;17667;45.598;5.214;2023-04-25T20:37:06;0.20;;;0.20;;
15577;SDS011;17667;45.598;5.214;2023-04-25T20:39:54;0.23;;;0.23;;
15577;SDS011;17667;45.598;5.214;2023-04-25T20:42:42;0.13;;;0.13;;
15577;SDS011;17667;45.598;5.214;2023-04-25T20:45:30;0.10;;;0.10;;
15577;SDS011;17667;45.598;5.214;2023-04-25T20:48:19;0.13;;;0.13;;
15577;SDS011;17667;45.598;5.214;2023-04-25T20:51:08;0.20;;;0.20;;
15577;SDS011;17667;45.598;5.214;2023-04-25T20:53:56;0.30;;;0.30;;
15577;SDS011;17667;45.598;5.214;2023-04-25T20:56:45;0.30;;;0.30;;
15577;SDS011;17667;45.598;5.214;2023-04-25T20:59:32;0.23;;;0.23;;
15577;SDS011;17667;45.598;5.214;2023-04-25T21:02:20;0.40;;;0.40;;
15577;SDS011;17667;45.598;5.214;2023-04-25T21:05:08;0.40;;;0.40;;
15577;SDS011;17667;45.598;5.214;2023-04-25T21:07:57;0.40;;;0.33;;
15577;SDS011;17667;45.598;5.214;2023-04-25T21:10:45;0.50;;;0.50;;
15577;SDS011;17667;45.598;5.214;2023-04-25T21:13:33;1.13;;;0.50;;
15577;SDS011;17667;45.598;5.214;2023-04-25T21:16:21;0.37;;;0.37;;
15577;SDS011;17667;45.598;5.214;2023-04-25T21:19:08;0.57;;;0.50;;
15577;SDS011;17667;45.598;5.214;2023-04-25T21:21:56;0.67;;;0.50;;
15577;SDS011;17667;45.598;5.214;2023-04-25T21:24:45;0.50;;;0.50;;
15577;SDS011;17667;45.598;5.214;2023-04-25T21:27:35;0.40;;;0.40;;
15577;SDS011;17667;45.598;5.214;2023-04-25T21:30:23;0.30;;;0.30;;
15577;SDS011;17667;45.598;5.214;2023-04-25T21:33:12;0.30;;;0.30;;
15577;SDS011;17667;45.598;5.214;2023-04-25T21:35:59;0.40;;;0.40;;
15577;SDS011;17667;45.598;5.214;2023-04-25T21:38:47;0.40;;;0.30;;
15577;SDS011;17667;45.598;5.214;2023-04-25T21:41:36;0.40;;;0.40;;
15577;SDS011;17667;45.598;5.214;2023-04-25T21:44:24;0.40;;;0.40;;
15577;SDS011;17667;45.598;5.214;2023-04-25T21:47:15;0.40;;;0.40;;
15577;SDS011;17667;45.598;5.214;2023-04-25T21:50:03;0.50;;;0.50;;
15577;SDS011;17667;45.598;5.214;2023-04-25T21:52:50;0.40;;;0.40;;
15577;SDS011;17667;45.598;5.214;2023-04-25T21:55:43;0.40;;;0.40;;
15577;SDS011;17667;45.598;5.214;2023-04-25T21:58:32;0.40;;;0.40;;
15577;SDS011;17667;45.598;5.214;2023-04-25T22:01:20;0.40;;;0.40;;
15577;SDS011;17667;45.598;5.214;2023-04-25T22:04:07;0.40;;;0.40;;
15577;SDS011;17667;45.598;5.214;2023-04-25T22:06:55;0.40;;;0.40;;